createdAt,value
2023-05-19T00:02:33.799Z,99752.34
2023-05-19T00:05:19.496Z,99753.13
2023-05-19T00:08:05.510Z,99755.50
2023-05-19T00:10:51.090Z,99754.72
2023-05-19T00:13:36.946Z,99750.34
2023-05-19T00:16:24.099Z,99750.34
2023-05-19T00:19:10.353Z,99748.38
2023-05-19T00:21:56.232Z,99747.59
2023-05-19T00:24:41.623Z,99741.25
2023-05-19T00:27:26.862Z,99738.09
2023-05-19T00:30:12.535Z,99736.09
2023-05-19T00:32:58.121Z,99733.31
2023-05-19T00:35:43.411Z,99734.53
2023-05-19T00:38:29.294Z,99738.09
2023-05-19T00:41:14.909Z,99737.31
2023-05-19T00:44:00.344Z,99739.31
2023-05-19T00:46:45.638Z,99739.31
2023-05-19T00:49:30.997Z,99747.63
2023-05-19T00:52:16.347Z,99741.25
2023-05-19T00:55:01.761Z,99736.91
2023-05-19T00:57:47.082Z,99741.69
2023-05-19T01:00:32.744Z,99743.25
2023-05-19T01:03:20.645Z,99734.16
2023-05-19T01:06:07.391Z,99735.31
2023-05-19T01:08:54.741Z,99736.53
2023-05-19T01:11:40.385Z,99730.97
2023-05-19T01:14:25.609Z,99736.53
2023-05-19T01:17:24.334Z,99732.19
2023-05-19T01:20:31.295Z,99725.81
2023-05-19T01:23:23.881Z,99734.16
2023-05-19T01:26:12.903Z,99734.56
2023-05-19T01:29:38.397Z,99736.13
2023-05-19T01:32:25.479Z,99740.91
2023-05-19T01:35:15.079Z,99740.91
2023-05-19T01:38:01.466Z,99740.13
2023-05-19T01:40:49.540Z,99737.75
2023-05-19T01:43:36.022Z,99739.72
2023-05-19T01:46:22.208Z,99742.50
2023-05-19T01:49:08.046Z,99735.38
2023-05-19T01:51:53.542Z,99736.97
2023-05-19T01:54:40.999Z,99732.19
2023-05-19T01:57:56.489Z,99732.19
2023-05-19T02:00:56.796Z,99732.19
2023-05-19T02:04:03.537Z,99731.41
2023-05-19T02:07:01.422Z,99720.72
2023-05-19T02:10:21.714Z,99725.88
2023-05-19T02:13:09.016Z,99728.25
2023-05-19T02:15:58.945Z,99729.03
2023-05-19T02:18:46.265Z,99727.47
2023-05-19T02:21:31.672Z,99727.47
2023-05-19T02:24:17.518Z,99725.88
2023-05-19T02:27:02.812Z,99719.53
2023-05-19T02:29:48.203Z,99727.47
2023-05-19T02:32:33.461Z,99724.69
2023-05-19T02:35:19.171Z,99716.00
2023-05-19T02:38:04.416Z,99720.75
2023-05-19T02:40:52.763Z,99723.53
2023-05-19T02:43:38.485Z,99725.50
2023-05-19T02:46:24.031Z,99714.44
2023-05-19T02:49:10.018Z,99710.84
2023-05-19T02:51:55.413Z,99708.09
2023-05-19T02:54:40.870Z,99708.50
2023-05-19T02:57:26.952Z,99703.75
2023-05-19T03:00:12.948Z,99708.50
2023-05-19T03:03:02.752Z,99703.75
2023-05-19T03:05:48.596Z,99699.41
2023-05-19T03:08:34.564Z,99706.94
2023-05-19T03:11:19.863Z,99700.59
2023-05-19T03:14:05.596Z,99699.00
2023-05-19T03:16:51.456Z,99705.75
2023-05-19T03:19:36.889Z,99708.13
2023-05-19T03:22:22.432Z,99709.31
2023-05-19T03:25:08.164Z,99705.38
2023-05-19T03:27:53.973Z,99706.53
2023-05-19T03:30:39.876Z,99708.94
2023-05-19T03:33:32.764Z,99711.69
2023-05-19T03:36:18.174Z,99704.19
2023-05-19T03:39:03.738Z,99714.06
2023-05-19T03:41:49.833Z,99711.31
2023-05-19T03:44:35.100Z,99707.75
2023-05-19T03:47:20.498Z,99714.06
2023-05-19T03:50:06.510Z,99706.53
2023-05-19T03:53:07.359Z,99714.06
2023-05-19T03:56:00.691Z,99714.47
2023-05-19T03:58:47.130Z,99714.47
2023-05-19T04:01:33.808Z,99718.84
2023-05-19T04:04:19.683Z,99722.38
2023-05-19T04:07:05.138Z,99718.03
2023-05-19T04:09:51.064Z,99718.75
2023-05-19T04:12:36.748Z,99714.44
2023-05-19T04:15:22.130Z,99710.03
2023-05-19T04:18:07.450Z,99708.84
2023-05-19T04:20:53.532Z,99716.34
2023-05-19T04:23:38.841Z,99711.56
2023-05-19T04:26:25.033Z,99701.25
2023-05-19T04:29:10.742Z,99711.94
2023-05-19T04:32:00.997Z,99708.34
2023-05-19T04:34:47.223Z,99707.19
2023-05-19T04:37:40.688Z,99696.47
2023-05-19T04:40:27.736Z,99694.88
2023-05-19T04:43:12.950Z,99705.91
2023-05-19T04:45:58.814Z,99706.69
2023-05-19T04:48:45.212Z,99705.91
2023-05-19T04:51:31.551Z,99712.25
2023-05-19T04:54:19.547Z,99709.06
2023-05-19T04:57:07.570Z,99707.06
2023-05-19T05:00:00.038Z,99706.25
2023-05-19T05:02:51.843Z,99711.81
2023-05-19T05:05:39.439Z,99714.19
2023-05-19T05:08:25.409Z,99717.75
2023-05-19T05:11:12.904Z,99717.72
2023-05-19T05:14:00.892Z,99715.75
2023-05-19T05:16:50.993Z,99713.34
2023-05-19T05:19:41.436Z,99713.72
2023-05-19T05:22:27.480Z,99710.97
2023-05-19T05:25:13.814Z,99710.56
2023-05-19T05:28:00.045Z,99714.13
2023-05-19T05:30:46.760Z,99713.72
2023-05-19T05:33:34.444Z,99713.28
2023-05-19T05:36:21.416Z,99713.69
2023-05-19T05:39:07.429Z,99708.91
2023-05-19T05:41:53.743Z,99708.13
2023-05-19T05:44:39.983Z,99715.28
2023-05-19T05:47:26.894Z,99716.06
2023-05-19T05:50:13.744Z,99714.44
2023-05-19T05:53:01.983Z,99713.66
2023-05-19T05:55:50.245Z,99713.66
2023-05-19T05:58:38.205Z,99716.03
2023-05-19T06:01:24.199Z,99721.59
2023-05-19T06:04:10.479Z,99721.59
2023-05-19T06:07:01.163Z,99713.66
2023-05-19T06:09:50.514Z,99719.19
2023-05-19T06:12:40.055Z,99712.47
2023-05-19T06:15:25.920Z,99717.19
2023-05-19T06:18:19.186Z,99715.19
2023-05-19T06:21:10.251Z,99715.97
2023-05-19T06:23:55.950Z,99706.41
2023-05-19T06:26:41.483Z,99708.78
2023-05-19T06:29:26.828Z,99709.56
2023-05-19T06:32:14.445Z,99708.78
2023-05-19T06:35:00.212Z,99706.41
2023-05-19T06:37:45.977Z,99696.91
2023-05-19T06:43:17.884Z,99703.22
2023-05-19T06:46:14.557Z,99702.44
2023-05-19T06:49:02.271Z,99704.00
2023-05-19T06:51:52.037Z,99704.41
2023-05-19T06:54:38.942Z,99702.84
2023-05-19T06:57:24.353Z,99712.72
2023-05-19T07:00:13.423Z,99712.72
2023-05-19T07:03:02.801Z,99705.59
2023-05-19T07:05:48.664Z,99707.97
2023-05-19T07:08:35.244Z,99701.63
2023-05-19T07:11:22.183Z,99704.78
2023-05-19T07:14:08.112Z,99706.75
2023-05-19T07:16:54.426Z,99698.78
2023-05-19T07:19:41.121Z,99702.38
2023-05-19T07:22:27.674Z,99700.75
2023-05-19T07:25:16.752Z,99695.97
2023-05-19T07:28:05.875Z,99701.53
2023-05-19T07:30:52.012Z,99697.53
2023-05-19T07:33:37.579Z,99689.19
2023-05-19T07:36:23.313Z,99695.91
2023-05-19T07:39:09.011Z,99693.91
2023-05-19T07:41:55.942Z,99686.78
2023-05-19T07:44:41.749Z,99696.69
2023-05-19T07:47:27.562Z,99677.69
2023-05-19T07:50:14.506Z,99682.81
2023-05-19T07:52:59.671Z,99692.34
2023-05-19T07:55:44.807Z,99683.56
2023-05-19T07:58:30.116Z,99689.50
2023-05-19T08:01:15.422Z,99681.53
2023-05-19T08:04:00.856Z,99678.78
2023-05-19T08:06:46.680Z,99670.81
2023-05-19T08:09:32.026Z,99675.13
2023-05-19T08:12:17.446Z,99671.94
2023-05-19T08:15:03.321Z,99679.50
2023-05-19T08:17:48.781Z,99683.84
2023-05-19T08:20:34.831Z,99685.78
2023-05-19T08:23:22.546Z,99681.44
2023-05-19T08:26:08.136Z,99684.16
2023-05-19T08:28:53.978Z,99674.28
2023-05-19T08:31:39.229Z,99677.44
2023-05-19T08:34:24.618Z,99672.66
2023-05-19T08:37:11.031Z,99671.09
2023-05-19T08:39:57.294Z,99674.25
2023-05-19T08:42:43.152Z,99676.66
2023-05-19T08:45:29.150Z,99671.50
2023-05-19T08:48:16.800Z,99658.38
2023-05-19T08:51:20.853Z,99661.59
2023-05-19T08:54:15.850Z,99654.03
2023-05-19T08:57:02.404Z,99657.22
2023-05-19T08:59:49.081Z,99652.50
2023-05-19T09:02:36.766Z,99639.78
2023-05-19T09:05:23.263Z,99639.78
2023-05-19T09:08:08.664Z,99642.63
2023-05-19T09:10:53.747Z,99643.06
2023-05-19T09:13:39.442Z,99640.34
2023-05-19T09:16:27.657Z,99640.78
2023-05-19T09:19:15.867Z,99636.03
2023-05-19T09:22:04.929Z,99636.41
2023-05-19T09:24:50.707Z,99634.84
2023-05-19T09:27:36.150Z,99641.97
2023-05-19T09:30:21.852Z,99636.03
2023-05-19T09:33:09.942Z,99634.47
2023-05-19T09:35:56.814Z,99641.22
2023-05-19T09:38:42.742Z,99628.13
2023-05-19T09:41:28.930Z,99629.72
2023-05-19T09:44:29.460Z,99629.34
2023-05-19T09:47:16.469Z,99634.13
2023-05-19T09:50:01.789Z,99634.56
2023-05-19T09:52:48.233Z,99627.81
2023-05-19T09:55:34.873Z,99616.75
2023-05-19T09:58:21.750Z,99617.94
2023-05-19T10:01:08.584Z,99624.31
2023-05-19T10:03:54.323Z,99608.06
2023-05-19T10:06:40.546Z,99610.91
2023-05-19T10:09:27.953Z,99610.50
2023-05-19T10:12:13.737Z,99608.91
2023-05-19T10:14:59.530Z,99615.31
2023-05-19T10:17:45.748Z,99609.75
2023-05-19T10:20:32.801Z,99602.22
2023-05-19T10:23:18.839Z,99612.53
2023-05-19T10:26:06.659Z,99599.03
2023-05-19T10:28:52.233Z,99602.97
2023-05-19T10:31:40.255Z,99609.31
2023-05-19T10:34:44.032Z,99598.19
2023-05-19T10:37:45.208Z,99599.34
2023-05-19T10:40:36.879Z,99591.47
2023-05-19T10:43:43.955Z,99595.81
2023-05-19T10:46:30.401Z,99605.72
2023-05-19T10:49:22.716Z,99596.56
2023-05-19T10:52:26.149Z,99598.50
2023-05-19T10:55:17.529Z,99600.03
2023-05-19T10:58:02.921Z,99599.63
2023-05-19T11:01:01.034Z,99594.84
2023-05-19T11:03:59.451Z,99612.69
2023-05-19T11:06:52.632Z,99593.63
2023-05-19T11:09:41.096Z,99602.34
2023-05-19T11:12:26.541Z,99600.34
2023-05-19T11:15:14.006Z,99599.94
2023-05-19T11:18:01.925Z,99586.84
2023-05-19T11:20:58.602Z,99583.66
2023-05-19T11:23:44.421Z,99591.16
2023-05-19T11:26:46.382Z,99583.19
2023-05-19T11:29:33.528Z,99586.34
2023-05-19T11:32:21.768Z,99582.38
2023-05-19T11:35:10.134Z,99587.09
2023-05-19T11:37:56.448Z,99581.53
2023-05-19T11:40:42.197Z,99574.44
2023-05-19T11:43:27.718Z,99572.84
2023-05-19T11:46:13.992Z,99577.59
2023-05-19T11:48:59.549Z,99576.03
2023-05-19T11:51:45.874Z,99582.75
2023-05-19T11:54:33.695Z,99584.31
2023-05-19T11:57:20.483Z,99582.28
2023-05-19T12:00:08.077Z,99585.44
2023-05-19T12:02:54.004Z,99579.06
2023-05-19T12:05:48.742Z,99580.19
2023-05-19T12:08:37.164Z,99580.97
2023-05-19T12:11:23.932Z,99579.78
2023-05-19T12:14:09.860Z,99587.28
2023-05-19T12:16:55.455Z,99586.88
2023-05-19T12:19:43.516Z,99573.78
2023-05-19T12:22:30.000Z,99578.16
2023-05-19T12:25:17.182Z,99562.66
2023-05-19T12:28:05.764Z,99557.47
2023-05-19T12:30:52.584Z,99563.03
2023-05-19T12:33:38.222Z,99560.63
2023-05-19T12:36:25.217Z,99565.41
2023-05-19T12:39:11.811Z,99567.78
2023-05-19T12:42:10.173Z,99571.34
2023-05-19T12:44:57.309Z,99568.16
2023-05-19T12:47:48.771Z,99559.81
2023-05-19T12:50:34.890Z,99566.16
2023-05-19T12:53:20.533Z,99557.34
2023-05-19T12:56:14.099Z,99566.06
2023-05-19T12:59:00.717Z,99561.34
2023-05-19T13:01:46.446Z,99551.78
2023-05-19T13:04:31.657Z,99550.22
2023-05-19T13:07:16.950Z,99552.13
2023-05-19T13:10:02.486Z,99543.81
2023-05-19T13:12:47.716Z,99554.91
2023-05-19T13:15:35.726Z,99556.47
2023-05-19T13:18:21.309Z,99551.72
2023-05-19T13:21:06.952Z,99550.91
2023-05-19T13:23:53.398Z,99548.91
2023-05-19T13:26:39.735Z,99556.41
2023-05-19T13:29:25.638Z,99572.28
2023-05-19T13:32:10.871Z,99552.47
2023-05-19T13:34:56.390Z,99562.41
2023-05-19T13:37:42.780Z,99563.59
2023-05-19T13:40:28.720Z,99558.81
2023-05-19T13:43:14.245Z,99556.84
2023-05-19T13:45:59.784Z,99549.28
2023-05-19T13:48:45.424Z,99563.53
2023-05-19T13:51:31.348Z,99553.13
2023-05-19T13:54:19.617Z,99558.00
2023-05-19T13:57:06.280Z,99558.00
2023-05-19T14:00:01.677Z,99557.56
2023-05-19T14:02:57.448Z,99553.63
2023-05-19T14:05:42.720Z,99545.28
2023-05-19T14:08:28.184Z,99552.84
2023-05-19T14:11:21.696Z,99553.63
2023-05-19T14:14:08.833Z,99555.59
2023-05-19T14:16:56.445Z,99557.13
2023-05-19T14:19:42.112Z,99566.63
2023-05-19T14:22:27.789Z,99559.06
2023-05-19T14:25:13.059Z,99559.44
2023-05-19T14:27:58.426Z,99544.75
2023-05-19T14:30:43.893Z,99551.53
2023-05-19T14:33:34.742Z,99547.94
2023-05-19T14:36:21.152Z,99553.09
2023-05-19T14:39:06.618Z,99552.38
2023-05-19T14:41:52.983Z,99552.00
2023-05-19T14:44:38.594Z,99555.50
2023-05-19T14:47:26.167Z,99557.50
2023-05-19T14:50:12.933Z,99556.28
2023-05-19T14:52:58.390Z,99554.72
2023-05-19T14:55:44.307Z,99557.13
2023-05-19T14:58:29.733Z,99563.91
2023-05-19T15:01:15.117Z,99562.69
2023-05-19T15:04:00.326Z,99562.28
2023-05-19T15:06:48.209Z,99559.44
2023-05-19T15:09:37.931Z,99561.06
2023-05-19T15:12:23.240Z,99566.63
2023-05-19T15:15:09.652Z,99565.81
2023-05-19T15:17:55.437Z,99570.56
2023-05-19T15:20:40.632Z,99561.84
2023-05-19T15:23:25.950Z,99561.06
2023-05-19T15:26:11.057Z,99562.22
2023-05-19T15:28:56.424Z,99550.31
2023-05-19T15:31:41.886Z,99553.94
2023-05-19T15:34:27.377Z,99560.69
2023-05-19T15:37:12.753Z,99558.38
2023-05-19T15:39:58.265Z,99559.56
2023-05-19T15:42:43.906Z,99575.44
2023-05-19T15:45:29.035Z,99566.31
2023-05-19T15:48:14.534Z,99575.84
2023-05-19T15:51:00.051Z,99575.47
2023-05-19T15:53:45.313Z,99578.69
2023-05-19T15:56:30.655Z,99575.94
2023-05-19T15:59:15.901Z,99577.94
2023-05-19T16:02:01.497Z,99581.13
2023-05-19T16:04:46.725Z,99592.22
2023-05-19T16:07:31.925Z,99595.41
2023-05-19T16:10:17.255Z,99603.75
2023-05-19T16:13:02.579Z,99600.59
2023-05-19T16:15:48.670Z,99608.16
2023-05-19T16:18:34.168Z,99599.81
2023-05-19T16:21:19.537Z,99594.69
2023-05-19T16:24:06.429Z,99590.69
2023-05-19T16:26:53.607Z,99595.88
2023-05-19T16:29:39.363Z,99601.44
2023-05-19T16:32:25.214Z,99597.88
2023-05-19T16:35:11.392Z,99603.44
2023-05-19T16:37:57.450Z,99607.41
2023-05-19T16:40:45.642Z,99604.63
2023-05-19T16:43:33.689Z,99605.06
2023-05-19T16:46:21.693Z,99608.25
2023-05-19T16:49:07.595Z,99608.25
2023-05-19T16:51:54.182Z,99603.91
2023-05-19T16:54:40.809Z,99606.69
2023-05-19T16:57:26.767Z,99607.88
2023-05-19T17:00:13.090Z,99601.94
2023-05-19T17:02:58.329Z,99602.38
2023-05-19T17:05:45.594Z,99599.59
2023-05-19T17:08:33.189Z,99596.44
2023-05-19T17:11:19.384Z,99595.63
2023-05-19T17:14:09.701Z,99601.19
2023-05-19T17:16:55.987Z,99602.03
2023-05-19T17:19:41.879Z,99601.66
2023-05-19T17:22:29.489Z,99596.94
2023-05-19T17:25:15.815Z,99599.34
2023-05-19T17:28:01.550Z,99593.41
2023-05-19T17:30:47.375Z,99602.59
2023-05-19T17:33:33.329Z,99601.75
2023-05-19T17:36:19.282Z,99608.13
2023-05-19T17:39:05.433Z,99610.16
2023-05-19T17:41:52.607Z,99614.94
2023-05-19T17:44:38.200Z,99610.16
2023-05-19T17:47:23.958Z,99614.13
2023-05-19T17:50:09.578Z,99607.00
2023-05-19T17:52:56.244Z,99602.19
2023-05-19T17:55:44.164Z,99603.38
2023-05-19T17:58:29.781Z,99606.91
2023-05-19T18:01:17.082Z,99598.59
2023-05-19T18:04:03.800Z,99599.81
2023-05-19T18:06:52.084Z,99602.59
2023-05-19T18:09:38.420Z,99595.44
2023-05-19T18:12:23.626Z,99601.38
2023-05-19T18:15:09.081Z,99596.66
2023-05-19T18:17:54.717Z,99602.59
2023-05-19T18:20:41.190Z,99602.19
2023-05-19T18:23:26.828Z,99604.97
2023-05-19T18:26:15.678Z,99610.53
2023-05-19T18:29:04.821Z,99598.63
2023-05-19T18:31:50.287Z,99598.25
2023-05-19T18:34:35.646Z,99608.56
2023-05-19T18:37:20.933Z,99601.44
2023-05-19T18:40:07.585Z,99604.22
2023-05-19T18:42:53.061Z,99603.84
2023-05-19T18:45:38.481Z,99606.25
2023-05-19T18:48:25.684Z,99604.31
2023-05-19T18:51:11.350Z,99610.66
2023-05-19T18:53:56.781Z,99606.28
2023-05-19T18:56:42.398Z,99617.38
2023-05-19T18:59:27.893Z,99616.59
2023-05-19T19:02:13.189Z,99618.19
2023-05-19T19:04:58.823Z,99615.41
2023-05-19T19:07:44.776Z,99612.59
2023-05-19T19:10:33.268Z,99610.97
2023-05-19T19:13:19.121Z,99614.13
2023-05-19T19:16:04.560Z,99612.94
2023-05-19T19:18:50.116Z,99614.50
2023-05-19T19:21:35.729Z,99620.84
2023-05-19T19:24:21.420Z,99623.63
2023-05-19T19:27:06.931Z,99626.38
2023-05-19T19:29:52.242Z,99627.59
2023-05-19T19:32:37.799Z,99625.59
2023-05-19T19:35:23.109Z,99618.06
2023-05-19T19:38:08.706Z,99627.19
2023-05-19T19:40:54.100Z,99617.28
2023-05-19T19:43:39.170Z,99622.44
2023-05-19T19:46:24.437Z,99628.38
2023-05-19T19:49:09.755Z,99625.22
2023-05-19T19:51:55.080Z,99618.91
2023-05-19T19:54:40.211Z,99626.03
2023-05-19T19:57:26.902Z,99621.28
2023-05-19T20:00:12.996Z,99616.50
2023-05-19T20:05:46.678Z,99623.19
2023-05-19T20:08:31.849Z,99623.56
2023-05-19T20:11:17.228Z,99626.28
2023-05-19T20:14:02.932Z,99628.28
2023-05-19T20:16:48.140Z,99630.66
2023-05-19T20:19:33.705Z,99629.84
2023-05-19T20:22:19.466Z,99636.22
2023-05-19T20:25:05.040Z,99629.06
2023-05-19T20:27:50.615Z,99628.28
2023-05-19T20:30:35.949Z,99627.06
2023-05-19T20:33:21.298Z,99629.06
2023-05-19T20:36:07.328Z,99630.66
2023-05-19T20:38:53.053Z,99631.84
2023-05-19T20:41:38.622Z,99625.91
2023-05-19T20:44:23.826Z,99627.13
2023-05-19T20:47:09.002Z,99628.69
2023-05-19T20:49:54.264Z,99625.91
2023-05-19T20:52:39.541Z,99623.94
2023-05-19T20:55:50.694Z,99629.91
2023-05-19T20:58:37.104Z,99624.34
2023-05-19T21:01:22.803Z,99621.56
2023-05-19T21:04:08.282Z,99620.78
2023-05-19T21:06:53.624Z,99617.56
2023-05-19T21:09:38.979Z,99618.38
2023-05-19T21:12:25.291Z,99613.59
2023-05-19T21:15:11.122Z,99621.09
2023-05-19T21:17:56.416Z,99627.88
2023-05-19T21:20:41.667Z,99625.09
2023-05-19T21:23:26.792Z,99630.66
2023-05-19T21:26:12.042Z,99623.50
2023-05-19T21:28:57.365Z,99626.72
2023-05-19T21:31:42.572Z,99630.66
2023-05-19T21:34:27.881Z,99629.44
2023-05-19T21:37:13.219Z,99627.88
2023-05-19T21:39:58.563Z,99626.66
2023-05-19T21:42:43.738Z,99628.66
2023-05-19T21:45:29.204Z,99625.09
2023-05-19T21:48:14.492Z,99620.31
2023-05-19T21:50:59.641Z,99621.09
2023-05-19T21:53:45.274Z,99623.88
2023-05-19T21:56:30.681Z,99623.88
2023-05-19T21:59:15.798Z,99626.66
2023-05-19T22:02:00.959Z,99621.09
2023-05-19T22:04:46.353Z,99622.31
2023-05-19T22:07:31.675Z,99613.16
2023-05-19T22:10:17.413Z,99615.94
2023-05-19T22:13:02.968Z,99617.94
2023-05-19T22:15:48.197Z,99618.00
2023-05-19T22:18:33.907Z,99623.13
2023-05-19T22:21:19.340Z,99623.13
2023-05-19T22:24:04.641Z,99618.78
2023-05-19T22:26:49.983Z,99619.94
2023-05-19T22:29:38.433Z,99620.72
2023-05-19T22:32:24.196Z,99619.97
2023-05-19T22:35:10.871Z,99623.22
2023-05-19T22:37:56.094Z,99623.66
2023-05-19T22:40:41.554Z,99619.34
2023-05-19T22:43:26.791Z,99617.38
2023-05-19T22:46:12.099Z,99616.22
2023-05-19T22:48:57.405Z,99607.50
2023-05-19T22:51:42.515Z,99607.97
2023-05-19T22:54:27.874Z,99609.59
2023-05-19T22:57:13.134Z,99607.22
2023-05-19T22:59:58.320Z,99605.28
2023-05-19T23:02:43.537Z,99597.75
2023-05-19T23:05:28.795Z,99596.59
2023-05-19T23:08:14.032Z,99598.97
2023-05-19T23:11:00.898Z,99592.69
2023-05-19T23:13:46.068Z,99597.88
2023-05-19T23:16:31.298Z,99593.91
2023-05-19T23:19:17.134Z,99599.06
2023-05-19T23:22:02.770Z,99608.19
2023-05-19T23:24:48.043Z,99599.50
2023-05-19T23:27:36.658Z,99601.09
2023-05-19T23:30:22.096Z,99603.50
2023-05-19T23:33:07.300Z,99611.03
2023-05-19T23:35:52.543Z,99610.72
2023-05-19T23:38:37.863Z,99599.59
2023-05-19T23:41:23.037Z,99604.34
2023-05-19T23:44:08.571Z,99616.66
2023-05-19T23:46:54.049Z,99603.97
2023-05-19T23:49:39.311Z,99615.50
2023-05-19T23:52:24.639Z,99615.91
2023-05-19T23:55:12.662Z,99605.19
2023-05-19T23:57:58.082Z,99617.91
